Time;durP1;ratioP1;P1;durP2;ratioP2;P2;SDS_P1;SDS_P2;PMS_P1;PMS_P2;Temp;Humidity;BMP_temperature;BMP_pressure;BME280_temperature;BME280_humidity;BME280_pressure;Samples;Min_cycle;Max_cycle;Signal;HPM_P1;HPM_P2
2023/01/30 00:02:03;;;;;;;2.30;1.45;;;16.20;43.00;;;;;;5012464;28;20217;-70
2023/01/30 00:04:30;;;;;;;2.38;1.20;;;16.20;43.00;;;;;;5012671;28;20224;-70
2023/01/30 00:06:57;;;;;;;2.20;1.50;;;16.20;43.10;;;;;;5012786;28;20247;-70
2023/01/30 00:09:24;;;;;;;2.30;1.30;;;16.20;43.00;;;;;;5013020;28;20193;-70
2023/01/30 00:11:51;;;;;;;1.35;1.10;;;16.20;43.00;;;;;;5012741;28;20655;-70
2023/01/30 00:14:18;;;;;;;1.67;1.10;;;16.20;43.00;;;;;;5012801;28;20220;-71
2023/01/30 00:16:58;;;;;;;1.92;1.27;;;16.20;43.10;;;;;;5012448;28;20193;-70
2023/01/30 00:19:28;;;;;;;3.55;1.25;;;16.20;43.10;;;;;;5012829;28;20185;-70
2023/01/30 00:21:55;;;;;;;1.88;1.05;;;16.20;43.00;;;;;;5012612;28;20189;-70
2023/01/30 00:24:25;;;;;;;3.22;1.10;;;16.20;43.10;;;;;;5012739;28;20197;-70
2023/01/30 00:26:52;;;;;;;1.20;1.10;;;16.20;43.10;;;;;;5012695;28;20193;-73
2023/01/30 00:29:19;;;;;;;2.38;1.40;;;16.20;43.10;;;;;;5012481;28;20733;-70
2023/01/30 00:31:46;;;;;;;1.10;1.00;;;16.20;43.20;;;;;;5012552;28;20255;-70
2023/01/30 00:34:15;;;;;;;1.35;1.25;;;16.20;43.30;;;;;;5012421;28;20232;-70
2023/01/30 00:36:43;;;;;;;1.83;1.17;;;16.20;43.20;;;;;;5012230;28;20607;-70
2023/01/30 00:39:10;;;;;;;1.02;0.93;;;16.20;43.20;;;;;;5012335;28;20193;-70
2023/01/30 00:47:07;;;;;;;4.85;1.48;;;16.20;43.50;;;;;;5012234;28;20283;-69
2023/01/30 00:49:36;;;;;;;3.33;1.30;;;16.20;43.50;;;;;;5012441;28;20194;-69
2023/01/30 00:52:04;;;;;;;1.27;1.13;;;16.20;43.40;;;;;;5012439;28;20193;-70
2023/01/30 00:54:32;;;;;;;2.00;0.95;;;16.20;43.50;;;;;;5012405;28;20268;-70
2023/01/30 00:57:00;;;;;;;1.33;1.23;;;16.20;43.60;;;;;;5012441;28;20244;-70
2023/01/30 00:59:27;;;;;;;1.35;1.02;;;16.20;43.60;;;;;;5012370;28;20190;-70
2023/01/30 01:01:54;;;;;;;2.05;1.08;;;16.20;43.60;;;;;;5012271;28;20193;-70
2023/01/30 01:04:21;;;;;;;1.70;0.98;;;16.20;43.60;;;;;;5012088;28;20225;-70
2023/01/30 01:06:51;;;;;;;2.05;1.00;;;16.20;43.60;;;;;;5012420;28;20205;-69
2023/01/30 01:09:18;;;;;;;1.92;1.10;;;16.20;43.70;;;;;;5012341;28;20193;-70
2023/01/30 01:11:45;;;;;;;1.17;0.90;;;16.20;43.80;;;;;;5011912;28;20553;-70
2023/01/30 01:14:12;;;;;;;1.75;1.23;;;16.10;43.60;;;;;;5011919;28;20228;-70
2023/01/30 01:16:39;;;;;;;1.55;0.90;;;16.20;43.80;;;;;;5012196;28;20197;-70
2023/01/30 01:19:07;;;;;;;2.03;1.15;;;16.20;43.70;;;;;;5012323;28;20217;-69
2023/01/30 01:21:34;;;;;;;3.63;1.35;;;16.10;43.70;;;;;;5012287;28;20194;-70
2023/01/30 01:24:03;;;;;;;2.78;1.20;;;16.10;43.80;;;;;;5012278;28;20225;-70
2023/01/30 01:26:31;;;;;;;1.50;1.10;;;16.10;43.70;;;;;;5011945;28;20189;-70
2023/01/30 01:28:59;;;;;;;1.65;1.05;;;16.10;43.80;;;;;;5011043;28;20217;-69
2023/01/30 01:31:26;;;;;;;1.63;1.08;;;16.20;43.90;;;;;;5013007;28;20610;-70
2023/01/30 01:33:53;;;;;;;1.85;1.10;;;16.10;43.90;;;;;;5011758;28;20715;-70
2023/01/30 01:36:21;;;;;;;1.45;1.00;;;16.10;43.90;;;;;;5013021;28;20189;-70
2023/01/30 01:38:48;;;;;;;1.88;1.08;;;16.10;43.90;;;;;;5015566;28;20221;-70
2023/01/30 01:41:16;;;;;;;2.38;1.20;;;16.10;43.90;;;;;;5015480;28;20338;-70
2023/01/30 01:44:00;;;;;;;1.20;0.80;;;16.10;43.90;;;;;;5015345;28;20225;-70
2023/01/30 01:46:30;;;;;;;1.77;1.00;;;16.10;44.10;;;;;;5015517;28;20193;-70
2023/01/30 01:49:00;;;;;;;1.15;1.05;;;16.10;44.00;;;;;;5015425;28;20216;-70
2023/01/30 01:51:31;;;;;;;1.88;1.00;;;16.10;44.00;;;;;;5015351;28;20240;-70
2023/01/30 01:54:02;;;;;;;2.60;0.98;;;16.10;44.00;;;;;;5015456;28;20236;-70
2023/01/30 01:56:32;;;;;;;1.83;0.95;;;16.20;44.10;;;;;;5015343;28;20235;-70
2023/01/30 01:59:04;;;;;;;1.20;1.05;;;16.10;44.00;;;;;;5015025;28;20627;-70
2023/01/30 02:01:32;;;;;;;2.15;1.17;;;16.10;44.10;;;;;;5014851;28;20255;-70
2023/01/30 02:04:02;;;;;;;2.50;1.02;;;16.10;44.10;;;;;;5014888;28;20718;-70
2023/01/30 02:06:31;;;;;;;1.40;0.90;;;16.10;44.10;;;;;;5015372;28;20248;-70
2023/01/30 02:09:03;;;;;;;2.13;1.30;;;16.10;44.10;;;;;;5014958;28;20217;-70
2023/01/30 02:11:41;;;;;;;3.00;1.05;;;16.10;44.10;;;;;;5015068;28;20244;-70
2023/01/30 02:14:09;;;;;;;2.72;1.00;;;16.10;44.20;;;;;;5015124;28;20331;-70
2023/01/30 02:16:37;;;;;;;1.60;0.68;;;16.10;44.20;;;;;;5014587;28;20726;-69
2023/01/30 02:19:07;;;;;;;2.17;0.90;;;16.10;44.30;;;;;;5015055;28;20275;-70
2023/01/30 02:22:14;;;;;;;2.15;1.02;;;16.10;44.20;;;;;;5014808;28;20193;-70
2023/01/30 02:24:56;;;;;;;1.27;1.00;;;16.10;44.40;;;;;;5014431;28;20239;-70
2023/01/30 02:27:56;;;;;;;2.55;1.10;;;16.10;44.30;;;;;;5014869;28;20217;-70
2023/01/30 02:30:54;;;;;;;2.80;1.15;;;16.10;44.40;;;;;;4973033;28;20242;-70
2023/01/30 02:33:33;;;;;;;2.00;1.10;;;16.10;44.40;;;;;;4935086;28;20293;-70
2023/01/30 02:36:10;;;;;;;2.97;1.23;;;16.10;44.40;;;;;;4973180;28;20635;-70
2023/01/30 02:38:44;;;;;;;1.77;1.20;;;16.10;44.30;;;;;;4972967;28;20222;-72
2023/01/30 02:41:20;;;;;;;3.20;1.08;;;16.10;44.40;;;;;;4972723;28;20201;-70
2023/01/30 02:44:00;;;;;;;3.80;1.20;;;16.10;44.50;;;;;;4973010;28;20217;-69
2023/01/30 02:46:39;;;;;;;3.08;1.08;;;16.10;44.60;;;;;;4972887;28;20622;-70
2023/01/30 02:49:11;;;;;;;1.90;1.13;;;16.10;44.60;;;;;;4980764;28;20226;-70
2023/01/30 02:51:39;;;;;;;2.75;1.20;;;16.10;44.60;;;;;;4991889;28;20241;-70
2023/01/30 02:54:07;;;;;;;1.48;1.00;;;16.10;44.60;;;;;;4991898;28;20238;-70
2023/01/30 02:56:45;;;;;;;1.67;0.80;;;16.10;44.50;;;;;;4992021;28;20194;-70
2023/01/30 02:59:16;;;;;;;3.15;1.00;;;16.10;44.60;;;;;;4991858;28;20217;-70
2023/01/30 03:02:35;;;;;;;1.65;0.98;;;16.10;44.60;;;;;;4991899;28;20225;-70
2023/01/30 03:05:29;;;;;;;1.52;0.70;;;16.10;44.80;;;;;;4991906;28;20284;-71
2023/01/30 03:08:09;;;;;;;1.98;1.08;;;16.10;44.80;;;;;;5004864;28;20271;-70
2023/01/30 03:10:42;;;;;;;1.48;0.80;;;16.10;44.80;;;;;;5013958;28;20271;-70
2023/01/30 03:13:15;;;;;;;1.50;0.85;;;16.10;44.70;;;;;;5013722;28;20217;-70
2023/01/30 03:15:48;;;;;;;3.85;1.23;;;16.10;44.70;;;;;;5013526;28;20239;-70
2023/01/30 03:18:17;;;;;;;4.45;1.10;;;16.00;44.70;;;;;;5012196;28;20260;-70
2023/01/30 03:20:45;;;;;;;3.17;1.08;;;16.10;44.90;;;;;;5013810;28;20197;-70
2023/01/30 03:23:12;;;;;;;4.57;1.10;;;16.00;44.80;;;;;;5013660;28;20217;-70
2023/01/30 03:25:43;;;;;;;2.38;0.93;;;16.10;44.80;;;;;;5013316;28;20647;-70
2023/01/30 03:28:12;;;;;;;2.40;1.05;;;16.10;44.80;;;;;;5013602;28;20271;-69
2023/01/30 03:30:40;;;;;;;2.63;1.10;;;16.10;44.90;;;;;;5013528;28;20204;-70
2023/01/30 03:33:07;;;;;;;2.67;1.10;;;16.10;44.90;;;;;;5013455;28;20217;-70
2023/01/30 03:35:36;;;;;;;3.28;1.30;;;16.00;44.80;;;;;;5013469;28;20221;-70
2023/01/30 03:38:03;;;;;;;2.28;1.10;;;16.10;45.00;;;;;;5011828;28;20773;-70
2023/01/30 03:40:30;;;;;;;1.38;0.80;;;16.10;45.00;;;;;;5013087;28;20240;-70
2023/01/30 03:42:57;;;;;;;2.85;1.10;;;16.10;45.00;;;;;;5012847;28;20271;-70
2023/01/30 03:45:24;;;;;;;4.05;1.23;;;16.00;44.90;;;;;;5012881;28;20734;-70
2023/01/30 03:47:51;;;;;;;3.03;1.08;;;16.10;45.00;;;;;;5013132;28;20228;-70
2023/01/30 03:50:19;;;;;;;3.58;1.35;;;16.00;44.90;;;;;;5013335;28;20284;-74
2023/01/30 03:52:47;;;;;;;2.83;1.20;;;16.10;45.00;;;;;;5012699;28;20225;-70
2023/01/30 03:55:14;;;;;;;1.80;1.15;;;16.00;45.00;;;;;;5013041;28;20291;-70
2023/01/30 03:57:41;;;;;;;2.97;1.00;;;16.00;45.00;;;;;;5013030;28;20221;-70
2023/01/30 04:00:10;;;;;;;3.47;1.10;;;16.00;45.00;;;;;;5012712;28;20647;-70
2023/01/30 04:02:38;;;;;;;2.55;1.20;;;16.00;45.10;;;;;;5012606;28;20253;-70
2023/01/30 04:05:05;;;;;;;2.38;1.10;;;16.00;45.10;;;;;;5012725;28;20247;-70
2023/01/30 04:07:33;;;;;;;2.13;1.10;;;16.00;45.00;;;;;;5012928;28;20263;-69
2023/01/30 04:10:01;;;;;;;3.85;1.08;;;16.00;45.10;;;;;;5012590;28;20189;-70
2023/01/30 04:12:28;;;;;;;1.58;1.27;;;16.00;45.10;;;;;;5012780;28;20232;-70
2023/01/30 04:14:55;;;;;;;4.47;1.10;;;16.00;45.10;;;;;;5012722;28;20291;-73
2023/01/30 04:17:23;;;;;;;2.45;1.27;;;16.00;45.00;;;;;;5012654;28;20189;-69
2023/01/30 04:19:50;;;;;;;2.35;1.10;;;16.00;45.10;;;;;;5012593;28;20189;-69
2023/01/30 04:22:17;;;;;;;2.60;1.17;;;16.00;45.10;;;;;;5012448;28;20193;-69
2023/01/30 04:24:44;;;;;;;2.60;1.40;;;16.10;45.30;;;;;;5012787;28;20539;-70
2023/01/30 04:27:13;;;;;;;2.80;1.20;;;16.00;45.20;;;;;;5012409;28;20193;-71
2023/01/30 04:29:41;;;;;;;3.33;1.10;;;16.00;45.20;;;;;;5012674;28;20278;-69
2023/01/30 04:32:08;;;;;;;2.38;1.10;;;16.10;45.30;;;;;;5012613;28;20224;-69
2023/01/30 04:34:35;;;;;;;3.25;1.20;;;16.00;45.20;;;;;;5012518;28;20272;-70
2023/01/30 04:37:02;;;;;;;1.60;1.10;;;16.00;45.20;;;;;;5012624;28;20257;-70
2023/01/30 04:39:29;;;;;;;2.08;1.20;;;16.00;45.20;;;;;;5012299;28;20684;-70
2023/01/30 04:41:56;;;;;;;2.28;1.17;;;16.00;45.30;;;;;;5012556;28;20189;-70
2023/01/30 04:44:25;;;;;;;3.00;1.48;;;16.00;45.20;;;;;;5012575;28;20252;-69
2023/01/30 04:46:52;;;;;;;2.13;1.08;;;16.00;45.30;;;;;;5012243;28;20193;-70
2023/01/30 04:49:19;;;;;;;2.85;1.20;;;16.00;45.30;;;;;;5012108;28;20249;-70
2023/01/30 04:51:46;;;;;;;4.65;1.50;;;16.00;45.30;;;;;;5012149;28;20675;-70
2023/01/30 04:54:14;;;;;;;3.33;1.15;;;16.00;45.30;;;;;;5012165;28;20265;-69
2023/01/30 04:56:41;;;;;;;4.88;1.33;;;16.00;45.40;;;;;;5012219;28;20228;-70
2023/01/30 04:59:08;;;;;;;2.90;1.20;;;16.00;45.40;;;;;;5012131;28;20711;-70
2023/01/30 05:01:38;;;;;;;4.72;1.65;;;16.00;45.40;;;;;;5012369;28;20198;-70
2023/01/30 05:04:06;;;;;;;1.88;1.20;;;16.00;45.30;;;;;;5011791;28;20291;-70
2023/01/30 05:06:34;;;;;;;2.67;1.20;;;16.00;45.50;;;;;;5012514;28;20251;-70
2023/01/30 05:09:01;;;;;;;3.28;1.20;;;16.00;45.40;;;;;;5012428;28;20291;-70
2023/01/30 05:11:30;;;;;;;2.72;1.30;;;16.00;45.50;;;;;;5013748;28;20663;-69
2023/01/30 05:13:58;;;;;;;4.35;1.20;;;16.00;45.50;;;;;;5016014;28;20221;-72
2023/01/30 05:16:26;;;;;;;3.40;1.48;;;16.00;45.60;;;;;;5016021;28;20221;-70
2023/01/30 05:18:54;;;;;;;2.47;1.35;;;16.00;45.50;;;;;;5015728;28;20773;-70
2023/01/30 05:21:24;;;;;;;4.57;1.30;;;16.00;45.50;;;;;;5015427;28;20229;-69
2023/01/30 05:23:52;;;;;;;4.07;1.20;;;16.00;45.50;;;;;;5015969;28;20224;-70
2023/01/30 05:26:20;;;;;;;2.85;1.10;;;16.00;45.60;;;;;;5015562;28;20280;-70
2023/01/30 05:28:51;;;;;;;3.42;1.27;;;16.00;45.50;;;;;;5015791;28;20302;-70
2023/01/30 05:31:19;;;;;;;3.20;1.40;;;16.00;45.60;;;;;;5015434;28;20185;-69
2023/01/30 05:33:48;;;;;;;4.95;1.60;;;16.00;45.60;;;;;;5015803;28;20257;-70
2023/01/30 05:36:18;;;;;;;3.13;1.05;;;16.00;45.60;;;;;;5015529;28;20228;-70
2023/01/30 05:38:46;;;;;;;4.40;1.50;;;16.00;45.60;;;;;;5015735;28;20252;-70
2023/01/30 05:41:15;;;;;;;3.00;1.30;;;16.00;45.70;;;;;;5015573;28;20221;-69
2023/01/30 05:43:42;;;;;;;3.90;1.30;;;16.00;45.70;;;;;;5015441;28;20221;-70
2023/01/30 05:46:12;;;;;;;3.97;1.20;;;16.00;45.80;;;;;;5015483;28;20221;-70
2023/01/30 05:48:39;;;;;;;5.00;1.73;;;16.00;45.80;;;;;;5015275;28;20837;-70
2023/01/30 05:51:06;;;;;;;2.75;1.40;;;16.00;45.70;;;;;;5015348;28;20190;-70
2023/01/30 05:53:36;;;;;;;2.65;1.15;;;16.00;45.70;;;;;;5014923;28;20263;-70
2023/01/30 05:56:04;;;;;;;1.67;1.13;;;16.00;45.70;;;;;;5015261;28;20308;-70
2023/01/30 05:58:32;;;;;;;1.77;1.05;;;16.10;45.70;;;;;;5015077;28;20259;-74
2023/01/30 06:01:03;;;;;;;3.05;1.20;;;16.10;45.70;;;;;;5015236;28;20224;-70
2023/01/30 06:03:31;;;;;;;2.63;1.17;;;16.10;45.60;;;;;;5014911;28;20276;-70
2023/01/30 06:05:58;;;;;;;1.92;1.02;;;16.10;45.70;;;;;;5015111;28;20220;-70
2023/01/30 06:08:25;;;;;;;2.38;1.30;;;16.10;45.60;;;;;;5014839;28;20255;-70
2023/01/30 06:10:53;;;;;;;1.88;1.15;;;16.20;45.70;;;;;;5014767;28;20567;-70
2023/01/30 06:13:21;;;;;;;2.30;1.30;;;16.20;45.60;;;;;;5015010;28;20248;-71
2023/01/30 06:15:48;;;;;;;2.20;1.00;;;16.20;45.60;;;;;;5014858;28;20295;-70
2023/01/30 06:18:15;;;;;;;2.47;1.00;;;16.20;45.50;;;;;;5014941;28;20213;-70
2023/01/30 06:20:46;;;;;;;1.80;1.10;;;16.20;45.50;;;;;;5014829;28;20217;-70
2023/01/30 06:23:13;;;;;;;1.77;0.93;;;16.30;45.50;;;;;;5014613;28;20253;-71
2023/01/30 06:25:43;;;;;;;1.13;1.02;;;16.30;45.50;;;;;;5014644;28;20611;-70
2023/01/30 06:28:13;;;;;;;1.20;1.00;;;16.30;45.50;;;;;;5014337;28;20307;-70
2023/01/30 06:30:40;;;;;;;1.40;1.20;;;16.30;45.50;;;;;;5014371;28;20189;-70
2023/01/30 06:33:07;;;;;;;1.75;0.95;;;16.30;45.50;;;;;;5014302;28;20228;-70
2023/01/30 06:35:36;;;;;;;2.78;1.00;;;16.40;45.50;;;;;;5013374;28;20551;-74
2023/01/30 06:38:04;;;;;;;1.70;0.98;;;16.30;45.50;;;;;;5014577;28;20621;-70
2023/01/30 06:40:31;;;;;;;2.22;1.10;;;16.40;45.50;;;;;;5014475;28;20205;-70
2023/01/30 06:42:58;;;;;;;1.88;1.00;;;16.40;45.50;;;;;;4996217;28;20231;-69
2023/01/30 06:45:26;;;;;;;2.10;1.00;;;16.40;45.50;;;;;;5014079;28;20710;-70
2023/01/30 06:47:55;;;;;;;2.17;1.40;;;16.40;45.50;;;;;;5014047;28;20281;-69
2023/01/30 06:50:25;;;;;;;2.70;1.23;;;16.40;45.50;;;;;;5014243;28;20240;-70
2023/01/30 06:52:54;;;;;;;1.70;0.82;;;16.40;45.40;;;;;;5013882;28;20221;-70
2023/01/30 06:55:23;;;;;;;2.30;1.30;;;16.40;45.40;;;;;;5014071;28;20220;-70
2023/01/30 06:57:50;;;;;;;4.95;1.33;;;16.50;45.50;;;;;;5013596;28;20271;-70
2023/01/30 07:00:19;;;;;;;1.70;1.38;;;16.50;45.50;;;;;;5014138;28;20617;-70
2023/01/30 07:02:48;;;;;;;2.72;1.23;;;16.50;45.40;;;;;;5013942;28;20221;-70
2023/01/30 07:05:15;;;;;;;2.47;1.30;;;16.50;45.40;;;;;;5013737;28;20310;-70
2023/01/30 07:07:42;;;;;;;2.08;1.20;;;16.50;45.50;;;;;;5014081;28;20618;-70
2023/01/30 07:10:11;;;;;;;2.67;1.15;;;16.50;45.50;;;;;;5013990;28;20185;-70
2023/01/30 07:12:38;;;;;;;1.52;1.08;;;16.50;45.40;;;;;;5013832;28;20290;-70
2023/01/30 07:15:07;;;;;;;3.45;1.23;;;16.50;45.40;;;;;;5013445;28;20213;-70
2023/01/30 07:17:34;;;;;;;2.60;1.13;;;16.50;45.50;;;;;;5013417;28;20189;-70
2023/01/30 07:20:03;;;;;;;2.53;1.27;;;16.60;45.50;;;;;;5013463;28;20185;-71
2023/01/30 07:22:30;;;;;;;2.38;1.10;;;16.60;45.50;;;;;;5013625;28;20212;-70
2023/01/30 07:24:57;;;;;;;2.20;1.20;;;16.60;45.50;;;;;;5013735;28;20252;-73
2023/01/30 07:27:25;;;;;;;3.58;1.42;;;16.60;45.50;;;;;;5013578;28;20236;-70
2023/01/30 07:29:52;;;;;;;3.60;1.25;;;16.60;45.50;;;;;;5013488;28;20229;-70
2023/01/30 07:32:20;;;;;;;2.97;1.13;;;16.60;45.50;;;;;;5013179;28;20259;-70
2023/01/30 07:34:47;;;;;;;2.88;1.25;;;16.60;45.50;;;;;;5012833;28;20220;-70
2023/01/30 07:37:17;;;;;;;3.50;1.20;;;16.60;45.60;;;;;;5013503;28;20201;-70
2023/01/30 07:39:44;;;;;;;3.78;1.40;;;16.60;45.60;;;;;;5013444;28;20221;-70
2023/01/30 07:42:11;;;;;;;1.95;1.10;;;16.60;45.70;;;;;;5013291;28;20255;-70
2023/01/30 07:44:38;;;;;;;3.47;1.20;;;16.70;45.80;;;;;;5013302;28;20221;-70
2023/01/30 07:47:06;;;;;;;2.97;1.15;;;16.70;45.80;;;;;;5013359;28;20202;-70
2023/01/30 07:49:33;;;;;;;3.08;1.20;;;16.70;45.80;;;;;;5013115;28;20304;-70
2023/01/30 07:52:00;;;;;;;2.78;1.20;;;16.70;45.80;;;;;;5011670;28;20196;-70
2023/01/30 07:54:29;;;;;;;1.70;1.10;;;16.70;45.70;;;;;;5012947;28;20233;-74
2023/01/30 07:56:56;;;;;;;2.80;1.25;;;16.80;45.80;;;;;;5013077;28;20690;-70
2023/01/30 07:59:23;;;;;;;2.03;0.77;;;16.80;45.90;;;;;;5013269;28;20221;-70
2023/01/30 08:01:50;;;;;;;1.45;1.10;;;16.70;45.80;;;;;;5013049;28;20193;-69
2023/01/30 08:04:17;;;;;;;2.97;1.50;;;16.80;45.80;;;;;;5012516;28;20237;-70
2023/01/30 08:06:45;;;;;;;3.00;1.10;;;16.80;45.80;;;;;;5012741;28;20204;-70
2023/01/30 08:09:12;;;;;;;2.88;1.00;;;16.80;45.80;;;;;;5013154;28;20271;-70
2023/01/30 08:11:41;;;;;;;3.25;1.23;;;16.80;45.80;;;;;;5011686;28;20193;-70
2023/01/30 08:14:08;;;;;;;3.30;1.35;;;16.80;45.80;;;;;;5012740;28;20645;-73
2023/01/30 08:16:35;;;;;;;2.72;1.20;;;16.90;46.00;;;;;;5012388;28;20221;-70
2023/01/30 08:19:05;;;;;;;1.50;1.10;;;16.80;45.90;;;;;;5012693;28;20217;-70
2023/01/30 08:21:32;;;;;;;3.25;1.10;;;16.90;46.00;;;;;;5012449;28;20193;-70
2023/01/30 08:23:59;;;;;;;3.80;1.38;;;16.90;46.00;;;;;;5012545;28;20260;-70
2023/01/30 08:26:27;;;;;;;1.73;1.10;;;16.90;46.00;;;;;;5012677;28;20193;-70
2023/01/30 08:28:56;;;;;;;1.95;1.10;;;16.90;46.60;;;;;;5012613;28;20271;-70
2023/01/30 08:31:23;;;;;;;2.03;1.23;;;16.90;46.00;;;;;;5012269;28;20194;-70
2023/01/30 08:33:50;;;;;;;3.83;1.30;;;16.90;46.00;;;;;;5012608;28;20221;-70
2023/01/30 08:36:18;;;;;;;3.13;1.30;;;17.00;46.00;;;;;;5012510;28;20220;-70
2023/01/30 08:38:45;;;;;;;3.80;1.10;;;16.90;46.00;;;;;;5012668;28;20220;-69
2023/01/30 08:41:12;;;;;;;4.20;1.50;;;17.00;46.10;;;;;;5012542;28;20247;-70
2023/01/30 08:43:39;;;;;;;3.35;1.30;;;17.00;46.10;;;;;;5012262;28;20687;-70
2023/01/30 08:46:07;;;;;;;3.42;1.42;;;17.00;46.10;;;;;;5013533;28;20193;-70
2023/01/30 08:48:36;;;;;;;2.67;1.30;;;17.00;46.00;;;;;;5016601;28;20236;-70
2023/01/30 08:51:04;;;;;;;3.95;1.40;;;17.00;46.10;;;;;;5016474;28;20197;-70
2023/01/30 08:53:31;;;;;;;2.92;1.20;;;17.00;46.00;;;;;;5016230;28;20695;-70
2023/01/30 08:55:58;;;;;;;4.00;1.70;;;17.00;46.00;;;;;;5015923;28;20776;-70
2023/01/30 08:58:25;;;;;;;3.38;1.30;;;17.00;46.10;;;;;;5016458;28;20220;-71
2023/01/30 09:00:53;;;;;;;3.13;1.40;;;17.00;46.10;;;;;;5016367;28;20197;-70
2023/01/30 09:03:22;;;;;;;4.35;1.38;;;17.00;46.10;;;;;;5016247;28;20271;-70
2023/01/30 09:05:55;;;;;;;3.38;1.58;;;17.10;46.20;;;;;;5013348;28;20298;-70
2023/01/30 09:08:23;;;;;;;3.42;1.60;;;17.10;46.20;;;;;;5016954;28;20263;-70
2023/01/30 09:10:50;;;;;;;1.92;1.02;;;17.10;46.20;;;;;;5015871;28;20190;-74
2023/01/30 09:13:17;;;;;;;4.35;1.40;;;17.10;46.20;;;;;;5015811;28;20228;-70
2023/01/30 09:15:45;;;;;;;1.75;1.13;;;17.10;46.20;;;;;;5016007;28;20224;-69
2023/01/30 09:18:12;;;;;;;3.45;1.30;;;17.10;46.20;;;;;;5015913;28;20217;-70
2023/01/30 09:20:41;;;;;;;4.10;1.63;;;17.10;46.20;;;;;;5016271;28;20194;-70
2023/01/30 09:23:08;;;;;;;3.65;1.52;;;17.10;46.20;;;;;;5015567;28;20221;-74
2023/01/30 09:25:35;;;;;;;3.53;1.30;;;17.10;46.20;;;;;;5015909;28;20193;-70
2023/01/30 09:28:02;;;;;;;3.88;1.40;;;17.10;46.20;;;;;;5015499;28;20252;-74
2023/01/30 09:30:30;;;;;;;3.00;1.35;;;17.10;46.20;;;;;;5015833;28;20189;-70
2023/01/30 09:32:57;;;;;;;3.30;1.50;;;17.10;46.20;;;;;;5015287;28;20244;-71
2023/01/30 09:35:24;;;;;;;3.20;1.30;;;17.10;46.10;;;;;;5015731;28;20193;-71
2023/01/30 09:37:53;;;;;;;3.08;1.52;;;17.10;46.20;;;;;;5015422;28;20247;-69
2023/01/30 09:40:23;;;;;;;3.75;1.67;;;17.10;46.20;;;;;;5015637;28;20193;-70
2023/01/30 09:43:27;;;;;;;3.22;1.70;;;17.20;46.30;;;;;;5015479;28;20193;-74
2023/01/30 09:46:10;;;;;;;3.17;1.50;;;17.10;46.20;;;;;;4974104;28;20261;-70
2023/01/30 09:48:43;;;;;;;5.13;1.70;;;17.20;46.20;;;;;;5011931;28;20233;-71
2023/01/30 09:51:43;;;;;;;3.40;1.50;;;17.20;46.20;;;;;;5015096;28;20189;-72
2023/01/30 09:54:34;;;;;;;3.47;1.50;;;17.20;46.20;;;;;;5007440;28;20225;-70
2023/01/30 09:57:11;;;;;;;3.63;1.60;;;17.20;46.20;;;;;;5011751;28;20225;-70
2023/01/30 09:59:49;;;;;;;2.58;1.45;;;17.20;46.20;;;;;;5015421;28;20294;-71
2023/01/30 10:02:31;;;;;;;3.63;1.50;;;17.20;46.20;;;;;;5015154;28;20189;-74
2023/01/30 10:05:00;;;;;;;7.80;2.00;;;17.20;46.10;;;;;;5014847;28;20244;-71
2023/01/30 10:07:38;;;;;;;6.95;2.00;;;17.20;46.20;;;;;;5015129;28;20201;-70
2023/01/30 10:10:16;;;;;;;10.90;2.40;;;17.20;46.30;;;;;;5014839;28;20228;-70
2023/01/30 10:12:50;;;;;;;13.10;2.40;;;17.10;46.10;;;;;;5015028;28;20574;-71
2023/01/30 10:15:34;;;;;;;18.88;2.85;;;17.10;46.10;;;;;;5014926;28;20236;-70
2023/01/30 10:18:25;;;;;;;12.77;2.90;;;17.10;46.10;;;;;;5014843;28;20324;-74
2023/01/30 10:21:04;;;;;;;11.20;2.85;;;17.10;46.00;;;;;;5014876;28;20335;-70
2023/01/30 10:23:49;;;;;;;15.27;2.90;;;17.00;45.90;;;;;;5014489;28;20267;-70
2023/01/30 10:26:21;;;;;;;15.32;2.97;;;17.00;47.60;;;;;;5014522;28;20197;-71
2023/01/30 10:28:55;;;;;;;16.90;3.22;;;17.00;48.40;;;;;;5014346;28;20221;-70
2023/01/30 10:31:25;;;;;;;13.13;3.25;;;17.00;48.70;;;;;;5014345;28;20189;-70
2023/01/30 10:33:58;;;;;;;13.60;3.13;;;17.00;48.70;;;;;;5014566;28;20300;-70
2023/01/30 10:36:32;;;;;;;11.15;2.60;;;17.10;48.80;;;;;;5014277;28;20217;-70
2023/01/30 10:39:03;;;;;;;11.68;2.95;;;17.10;48.80;;;;;;5014200;28;20669;-70
2023/01/30 10:41:36;;;;;;;11.23;2.65;;;17.10;48.90;;;;;;5014297;28;20216;-70
2023/01/30 10:44:10;;;;;;;8.32;2.63;;;17.10;48.60;;;;;;5014419;28;20253;-70
2023/01/30 10:46:53;;;;;;;6.18;2.08;;;17.10;48.50;;;;;;5014077;28;20235;-70
2023/01/30 10:49:31;;;;;;;10.48;2.70;;;17.20;48.70;;;;;;5014361;28;20279;-70
2023/01/30 10:52:07;;;;;;;10.20;2.38;;;17.20;48.60;;;;;;5014211;28;20247;-72
2023/01/30 10:54:39;;;;;;;13.48;2.85;;;17.20;48.60;;;;;;5014212;28;20275;-72
2023/01/30 10:57:19;;;;;;;17.40;2.53;;;17.20;48.60;;;;;;5014145;28;20229;-70
2023/01/30 10:59:55;;;;;;;10.38;2.47;;;17.20;48.50;;;;;;5014152;28;20224;-70
2023/01/30 11:02:34;;;;;;;10.73;2.45;;;17.20;48.30;;;;;;5014054;28;20189;-70
2023/01/30 11:05:04;;;;;;;10.02;2.40;;;17.20;48.10;;;;;;5013660;28;20233;-71
2023/01/30 11:07:35;;;;;;;9.88;2.33;;;17.30;48.10;;;;;;5014240;28;20193;-70
2023/01/30 11:10:12;;;;;;;5.72;2.08;;;17.20;48.00;;;;;;5012390;28;20699;-70
2023/01/30 11:12:44;;;;;;;10.25;2.53;;;17.30;48.00;;;;;;5013884;28;20251;-70
2023/01/30 11:15:13;;;;;;;8.52;2.58;;;17.30;47.80;;;;;;5013726;28;20567;-71
2023/01/30 11:17:45;;;;;;;7.40;2.30;;;17.30;47.80;;;;;;5013657;28;20221;-70
2023/01/30 11:20:17;;;;;;;6.78;2.05;;;17.30;47.70;;;;;;5013510;28;20774;-69
2023/01/30 11:22:50;;;;;;;8.20;2.75;;;17.30;47.60;;;;;;5013651;28;20626;-70
2023/01/30 11:25:19;;;;;;;9.13;2.33;;;17.30;47.50;;;;;;5013436;28;20213;-70
2023/01/30 11:27:56;;;;;;;8.93;2.22;;;17.30;47.40;;;;;;5013669;28;20564;-70
2023/01/30 11:30:28;;;;;;;7.82;2.40;;;17.30;48.00;;;;;;5013708;28;20216;-70
2023/01/30 11:33:10;;;;;;;6.50;1.92;;;17.30;47.20;;;;;;5013522;28;20189;-71
2023/01/30 11:35:44;;;;;;;5.07;1.73;;;17.30;47.10;;;;;;5013522;28;20247;-70
2023/01/30 11:38:19;;;;;;;8.75;2.38;;;17.30;47.10;;;;;;5012142;28;20286;-70
2023/01/30 11:40:49;;;;;;;7.00;2.00;;;17.30;47.10;;;;;;5013407;28;20193;-70
2023/01/30 11:43:19;;;;;;;6.13;1.73;;;17.30;47.10;;;;;;5013268;28;20246;-71
2023/01/30 11:45:49;;;;;;;8.05;2.45;;;17.40;47.00;;;;;;4994963;28;20212;-70
2023/01/30 11:48:20;;;;;;;6.68;2.00;;;17.40;47.00;;;;;;5013238;28;20193;-70
2023/01/30 11:50:50;;;;;;;4.43;1.98;;;17.30;46.80;;;;;;4994664;28;20201;-74
2023/01/30 11:53:28;;;;;;;10.20;2.03;;;17.30;46.70;;;;;;4994803;28;20201;-70
2023/01/30 11:55:58;;;;;;;6.80;2.17;;;17.30;46.70;;;;;;5014108;28;20189;-70
2023/01/30 11:58:30;;;;;;;7.78;2.40;;;17.40;46.70;;;;;;5012738;28;20287;-71
2023/01/30 12:01:00;;;;;;;5.55;2.03;;;17.30;46.60;;;;;;5013038;28;20220;-70
2023/01/30 12:03:28;;;;;;;6.45;1.92;;;17.30;46.50;;;;;;5011571;28;20769;-70
2023/01/30 12:05:58;;;;;;;6.63;2.20;;;17.40;46.50;;;;;;5012642;28;20233;-70
2023/01/30 12:08:37;;;;;;;9.68;2.58;;;17.40;46.40;;;;;;5012892;28;20359;-70
2023/01/30 12:11:23;;;;;;;5.22;2.20;;;17.40;46.40;;;;;;5012587;28;20193;-70
2023/01/30 12:13:55;;;;;;;8.85;1.98;;;17.40;46.40;;;;;;5012881;28;20271;-70
2023/01/30 12:16:30;;;;;;;6.80;2.10;;;17.40;46.30;;;;;;5012681;28;20197;-70
2023/01/30 12:19:03;;;;;;;4.82;1.90;;;17.40;46.20;;;;;;5011581;28;20694;-70
2023/01/30 12:21:42;;;;;;;8.52;1.77;;;17.40;46.20;;;;;;5012540;28;20193;-70
2023/01/30 12:24:21;;;;;;;8.50;2.30;;;17.40;46.20;;;;;;5012516;28;20225;-71
2023/01/30 12:26:58;;;;;;;8.75;1.80;;;17.40;46.10;;;;;;5012732;28;20251;-70
2023/01/30 12:29:31;;;;;;;7.57;1.95;;;17.40;46.70;;;;;;5012567;28;20702;-70
2023/01/30 12:32:07;;;;;;;7.45;2.10;;;17.40;45.90;;;;;;5012534;28;20247;-70
2023/01/30 12:34:36;;;;;;;7.22;2.17;;;17.40;45.90;;;;;;5012733;28;20224;-70
2023/01/30 12:37:17;;;;;;;10.50;2.30;;;17.40;45.90;;;;;;5012257;28;20765;-73
2023/01/30 12:39:58;;;;;;;6.95;2.13;;;17.40;45.80;;;;;;5012221;28;20703;-70
2023/01/30 12:42:55;;;;;;;6.25;2.28;;;17.40;45.80;;;;;;5012419;28;20197;-70
2023/01/30 12:45:28;;;;;;;5.78;2.13;;;17.40;45.70;;;;;;5012456;28;20703;-70
2023/01/30 12:48:23;;;;;;;6.18;1.77;;;17.50;45.70;;;;;;5012467;28;20197;-71
2023/01/30 12:51:08;;;;;;;8.98;1.98;;;17.50;45.70;;;;;;4993844;28;20220;-70
2023/01/30 12:53:53;;;;;;;4.93;1.70;;;17.40;45.60;;;;;;5012175;28;20275;-74
2023/01/30 12:56:52;;;;;;;9.27;2.50;;;17.50;45.60;;;;;;5010997;28;20829;-70
2023/01/30 12:59:25;;;;;;;6.30;2.30;;;17.50;45.50;;;;;;5012356;28;20311;-71
2023/01/30 13:02:13;;;;;;;9.88;2.47;;;17.50;45.40;;;;;;5012316;28;20193;-70
2023/01/30 13:04:49;;;;;;;10.98;2.53;;;17.50;45.50;;;;;;5010288;28;20738;-70
2023/01/30 13:07:22;;;;;;;6.30;1.83;;;17.50;45.40;;;;;;5012049;28;20558;-70
2023/01/30 13:10:05;;;;;;;8.93;2.10;;;17.50;45.30;;;;;;5012553;28;20291;-70
2023/01/30 13:12:41;;;;;;;6.57;1.95;;;17.50;45.30;;;;;;5012257;28;20225;-70